Time;durP1;ratioP1;P1;durP2;ratioP2;P2;SDS_P1;SDS_P2;PMS_P1;PMS_P2;Temp;Humidity;BMP_temperature;BMP_pressure;BME280_temperature;BME280_humidity;BME280_pressure;Samples;Min_cycle;Max_cycle;Signal;HPM_P1;HPM_P2
2022/04/04 00:01:21;;;;;;;4.80;4.30;;;3.20;37.30;;;;;;10345515;28;20271;-72
2022/04/04 00:06:29;;;;;;;3.93;3.63;;;3.20;37.30;;;;;;10340126;28;20309;-72
2022/04/04 00:11:33;;;;;;;4.87;4.47;;;3.20;37.30;;;;;;10346494;28;20624;-72
2022/04/04 00:16:36;;;;;;;5.37;4.87;;;3.20;37.20;;;;;;10343438;28;20234;-72
2022/04/04 00:21:40;;;;;;;4.43;4.03;;;3.30;37.10;;;;;;10340123;28;20241;-72
2022/04/04 00:26:44;;;;;;;4.50;4.10;;;3.30;36.90;;;;;;10342166;28;20723;-72
2022/04/04 00:31:47;;;;;;;4.17;3.87;;;3.10;36.80;;;;;;10344742;28;20234;-72
2022/04/04 00:36:51;;;;;;;5.07;4.67;;;3.30;37.00;;;;;;10343848;28;20993;-72
2022/04/04 00:41:55;;;;;;;4.90;4.40;;;3.30;36.80;;;;;;10341329;28;20230;-72
2022/04/04 00:46:59;;;;;;;4.33;4.03;;;3.30;36.90;;;;;;10341880;28;20242;-72
2022/04/04 00:52:05;;;;;;;5.17;4.77;;;3.20;36.90;;;;;;10347178;28;20238;-73
2022/04/04 00:57:08;;;;;;;5.17;4.60;;;3.20;36.80;;;;;;10344024;28;20231;-72
2022/04/04 01:02:11;;;;;;;5.60;5.10;;;3.30;36.80;;;;;;10344128;28;20246;-72
2022/04/04 01:07:16;;;;;;;4.97;4.47;;;3.20;36.60;;;;;;10338235;28;20230;-72
2022/04/04 01:12:22;;;;;;;5.47;4.90;;;3.20;36.60;;;;;;10346008;28;20218;-72
2022/04/04 01:17:25;;;;;;;4.90;4.40;;;3.10;36.40;;;;;;10344029;28;20241;-72
2022/04/04 01:22:30;;;;;;;4.90;4.50;;;3.10;36.50;;;;;;10344488;28;20227;-72
2022/04/04 01:27:34;;;;;;;4.80;4.40;;;3.10;36.60;;;;;;10341544;28;20227;-72
2022/04/04 01:32:37;;;;;;;4.57;3.97;;;3.10;36.50;;;;;;10338964;28;20604;-72
2022/04/04 01:37:40;;;;;;;5.53;5.03;;;3.00;36.50;;;;;;10336999;28;20242;-72
2022/04/04 01:42:50;;;;;;;6.70;5.13;;;3.10;36.60;;;;;;10343106;28;20606;-72
2022/04/04 01:47:53;;;;;;;5.40;4.70;;;2.90;35.90;;;;;;10339703;28;20230;-72
2022/04/04 01:53:25;;;;;;;5.10;4.70;;;2.80;36.10;;;;;;10341871;28;20245;-72
2022/04/04 01:58:25;;;;;;;4.67;4.30;;;2.70;36.40;;;;;;10340296;28;20692;-72
2022/04/04 02:03:29;;;;;;;4.50;4.10;;;2.60;36.50;;;;;;10338625;28;20237;-72
2022/04/04 02:08:33;;;;;;;4.73;4.33;;;2.60;36.50;;;;;;10335910;28;20234;-72
2022/04/04 02:13:38;;;;;;;4.83;4.40;;;2.60;36.50;;;;;;10341698;28;20230;-72
2022/04/04 02:18:42;;;;;;;5.13;4.63;;;2.60;36.40;;;;;;10341545;28;20222;-72
2022/04/04 02:23:45;;;;;;;4.90;4.50;;;2.50;36.20;;;;;;10339782;28;20233;-72
2022/04/04 02:28:49;;;;;;;5.13;4.63;;;2.50;36.20;;;;;;10342529;28;20237;-72
2022/04/04 02:33:53;;;;;;;4.53;4.13;;;2.30;36.20;;;;;;10338349;28;20219;-72
2022/04/04 02:38:56;;;;;;;4.10;3.80;;;2.30;36.70;;;;;;10336498;28;20706;-73
2022/04/04 02:44:00;;;;;;;4.30;3.90;;;2.20;36.70;;;;;;10337836;28;20723;-72
2022/04/04 02:49:04;;;;;;;5.13;4.63;;;2.20;37.40;;;;;;10335515;28;20234;-72
2022/04/04 02:54:07;;;;;;;4.83;4.40;;;2.30;36.60;;;;;;10338563;28;20234;-72
2022/04/04 02:59:12;;;;;;;4.70;4.30;;;2.10;36.30;;;;;;10342573;28;20246;-72
2022/04/04 03:04:15;;;;;;;4.57;4.00;;;2.10;36.60;;;;;;10343735;28;20227;-72
2022/04/04 03:09:19;;;;;;;5.43;3.80;;;2.00;36.60;;;;;;10340026;28;20234;-72
2022/04/04 03:14:23;;;;;;;4.43;4.03;;;2.10;36.70;;;;;;10341292;28;20738;-72
2022/04/04 03:19:27;;;;;;;4.47;4.07;;;2.00;36.60;;;;;;10343047;28;20249;-72
2022/04/04 03:24:30;;;;;;;4.60;4.17;;;1.90;36.60;;;;;;10344534;28;20233;-72
2022/04/04 03:29:35;;;;;;;5.13;4.03;;;1.80;36.60;;;;;;10344797;28;20234;-72
2022/04/04 03:34:38;;;;;;;5.40;4.50;;;1.80;36.70;;;;;;10340036;28;20747;-72
2022/04/04 03:39:41;;;;;;;4.23;3.83;;;1.80;36.80;;;;;;10341624;28;20239;-72
2022/04/04 03:44:46;;;;;;;4.20;3.80;;;1.80;36.90;;;;;;10340638;28;20671;-72
2022/04/04 03:49:49;;;;;;;5.93;4.10;;;1.70;36.70;;;;;;10339010;28;20574;-72
2022/04/04 03:54:52;;;;;;;5.30;4.13;;;1.80;36.70;;;;;;10340395;28;20225;-72
2022/04/04 03:59:57;;;;;;;3.77;3.47;;;1.70;36.70;;;;;;10338897;28;20243;-73
2022/04/04 04:05:00;;;;;;;4.60;4.20;;;1.60;36.70;;;;;;10340865;28;20231;-74
2022/04/04 04:10:04;;;;;;;4.23;3.83;;;1.60;36.70;;;;;;10345731;28;20234;-72
2022/04/04 04:15:11;;;;;;;4.30;3.90;;;1.50;36.70;;;;;;10341321;28;20245;-71
2022/04/04 04:20:20;;;;;;;4.17;3.77;;;1.50;36.90;;;;;;10343386;28;20227;-72
2022/04/04 04:25:27;;;;;;;4.37;3.97;;;1.50;36.70;;;;;;10347198;28;20309;-72
2022/04/04 04:30:33;;;;;;;4.57;4.13;;;1.50;36.80;;;;;;10343725;28;20329;-71
2022/04/04 04:35:36;;;;;;;4.43;4.03;;;1.50;36.60;;;;;;10342256;28;20599;-71
2022/04/04 04:40:39;;;;;;;4.63;4.23;;;1.40;36.70;;;;;;10344084;28;20242;-71
2022/04/04 04:45:44;;;;;;;7.00;5.30;;;1.40;36.60;;;;;;10344637;28;20223;-71
2022/04/04 04:50:48;;;;;;;6.97;6.37;;;1.40;36.60;;;;;;10343288;28;20973;-71
2022/04/04 04:55:51;;;;;;;7.03;5.70;;;1.30;36.70;;;;;;10339921;28;20244;-72
2022/04/04 05:00:55;;;;;;;6.27;5.17;;;1.30;36.80;;;;;;10342291;28;20285;-72
2022/04/04 05:05:59;;;;;;;5.00;4.50;;;1.30;36.80;;;;;;10343202;28;20237;-73
2022/04/04 05:11:02;;;;;;;5.33;4.83;;;1.20;36.70;;;;;;10340745;28;20245;-70
2022/04/04 05:16:10;;;;;;;5.50;4.97;;;1.20;36.90;;;;;;10343044;28;20289;-72
2022/04/04 05:21:13;;;;;;;5.87;5.30;;;1.20;37.50;;;;;;10341425;28;20282;-72
2022/04/04 05:26:17;;;;;;;10.87;9.60;;;1.40;37.60;;;;;;10336552;28;20214;-72
2022/04/04 05:31:21;;;;;;;6.73;6.07;;;1.20;37.30;;;;;;10341040;28;20231;-72
2022/04/04 05:36:25;;;;;;;6.73;6.13;;;1.30;37.40;;;;;;10338787;28;20285;-72
2022/04/04 05:41:28;;;;;;;7.30;6.60;;;1.30;37.30;;;;;;10346198;28;20701;-72
2022/04/04 05:46:34;;;;;;;5.33;4.83;;;1.30;37.30;;;;;;10338419;28;20227;-72
2022/04/04 05:51:37;;;;;;;5.77;5.23;;;1.30;37.40;;;;;;10342368;28;20231;-72
2022/04/04 05:57:00;;;;;;;5.07;4.60;;;1.30;37.50;;;;;;10337859;28;20237;-72
2022/04/04 06:02:06;;;;;;;6.30;5.43;;;1.40;37.60;;;;;;10344775;28;20669;-72
2022/04/04 06:07:09;;;;;;;5.97;5.37;;;1.40;37.60;;;;;;10338747;28;20239;-71
2022/04/04 06:12:13;;;;;;;6.90;5.13;;;1.50;37.70;;;;;;10341196;28;20238;-72
2022/04/04 06:17:18;;;;;;;5.17;4.67;;;1.50;37.80;;;;;;10339341;28;20230;-72
2022/04/04 06:22:22;;;;;;;5.87;4.93;;;1.60;38.00;;;;;;10338526;28;20231;-72
2022/04/04 06:27:25;;;;;;;6.80;4.77;;;1.60;37.90;;;;;;10337920;28;20230;-72
2022/04/04 06:32:30;;;;;;;5.20;4.70;;;1.60;38.10;;;;;;10341468;28;20594;-72
2022/04/04 06:37:33;;;;;;;5.10;4.50;;;1.70;38.30;;;;;;10345318;28;20238;-72
2022/04/04 06:42:36;;;;;;;5.53;4.77;;;1.70;38.30;;;;;;10341022;28;20246;-72
2022/04/04 06:47:41;;;;;;;6.50;5.90;;;1.80;38.60;;;;;;10335969;28;20615;-72
2022/04/04 06:52:45;;;;;;;5.70;5.00;;;1.80;38.70;;;;;;10334169;28;20241;-72
2022/04/04 06:58:08;;;;;;;6.67;4.80;;;1.80;38.80;;;;;;10336581;28;20226;-74
2022/04/04 07:03:13;;;;;;;8.23;4.57;;;2.00;39.00;;;;;;10340838;28;20246;-75
2022/04/04 07:08:16;;;;;;;5.47;4.93;;;2.00;39.20;;;;;;10336829;28;20641;-75
2022/04/04 07:13:19;;;;;;;5.33;4.77;;;2.20;39.30;;;;;;10340982;28;20691;-76
2022/04/04 07:18:25;;;;;;;5.43;4.57;;;2.30;39.40;;;;;;10341457;28;20234;-72
2022/04/04 07:23:28;;;;;;;6.37;4.97;;;2.50;39.50;;;;;;10343137;28;20231;-72
2022/04/04 07:28:31;;;;;;;4.47;3.83;;;2.70;39.50;;;;;;10344220;28;20317;-72
2022/04/04 07:33:36;;;;;;;4.70;3.30;;;2.90;38.70;;;;;;10337951;28;20317;-73
2022/04/04 07:38:39;;;;;;;3.67;3.37;;;3.20;38.70;;;;;;10342332;28;20236;-75
2022/04/04 07:43:42;;;;;;;3.47;3.17;;;3.40;38.20;;;;;;10345321;28;20245;-75
2022/04/04 07:48:47;;;;;;;3.47;3.17;;;3.60;38.20;;;;;;10348603;28;20242;-72
2022/04/04 07:53:50;;;;;;;3.67;3.07;;;3.80;38.10;;;;;;10341770;28;20303;-72
2022/04/04 07:58:53;;;;;;;3.30;3.00;;;4.00;38.00;;;;;;10342076;28;20230;-72
2022/04/04 08:03:58;;;;;;;2.90;2.70;;;4.30;38.00;;;;;;10348407;28;20219;-72
2022/04/04 08:09:01;;;;;;;3.37;3.07;;;4.50;36.80;;;;;;10349604;28;20227;-72
2022/04/04 08:14:08;;;;;;;4.10;3.27;;;4.70;37.80;;;;;;10346771;28;20226;-71
2022/04/04 08:19:13;;;;;;;3.97;3.20;;;4.90;37.50;;;;;;10345509;28;20239;-72
2022/04/04 08:24:16;;;;;;;3.73;3.43;;;5.10;36.90;;;;;;10341728;28;20226;-72
2022/04/04 08:29:20;;;;;;;5.30;3.60;;;5.30;37.10;;;;;;10344649;28;20233;-72
2022/04/04 08:34:25;;;;;;;4.13;3.83;;;5.50;37.20;;;;;;10345584;28;20249;-72
2022/04/04 08:39:28;;;;;;;4.63;4.23;;;5.60;36.10;;;;;;10346470;28;20599;-72
2022/04/04 08:44:33;;;;;;;4.33;3.93;;;5.70;37.30;;;;;;10342917;28;20250;-73
2022/04/04 08:49:37;;;;;;;4.67;4.27;;;5.80;36.10;;;;;;10346123;28;20722;-72
2022/04/04 08:54:40;;;;;;;4.63;4.13;;;5.90;35.60;;;;;;10342836;28;20886;-72
2022/04/04 08:59:44;;;;;;;4.70;3.53;;;6.00;35.30;;;;;;10346045;28;20229;-72
2022/04/04 09:04:53;;;;;;;3.90;3.60;;;6.20;36.10;;;;;;10343228;28;20231;-72
2022/04/04 09:09:56;;;;;;;6.37;3.87;;;6.30;34.20;;;;;;10342903;28;20226;-72
2022/04/04 09:15:00;;;;;;;3.57;3.27;;;6.40;35.50;;;;;;10342227;28;20230;-72
2022/04/04 09:20:11;;;;;;;3.93;3.50;;;6.50;35.30;;;;;;10344309;28;20675;-73
2022/04/04 09:25:14;;;;;;;3.60;3.30;;;6.70;34.40;;;;;;10344982;28;20223;-73
2022/04/04 09:30:22;;;;;;;3.87;3.57;;;6.80;35.10;;;;;;10344765;28;20525;-73
2022/04/04 09:35:32;;;;;;;3.57;3.30;;;7.00;33.40;;;;;;10347358;28;20230;-73
2022/04/04 09:40:36;;;;;;;3.27;3.00;;;7.10;35.10;;;;;;10346093;28;20558;-73
2022/04/04 09:45:41;;;;;;;3.43;3.13;;;7.30;34.70;;;;;;10341431;28;20753;-73
2022/04/04 09:50:48;;;;;;;3.20;2.90;;;7.50;34.10;;;;;;10339079;28;20249;-73
2022/04/04 09:55:55;;;;;;;3.60;3.30;;;7.60;32.80;;;;;;10332112;28;20234;-73
2022/04/04 10:01:00;;;;;;;3.67;3.37;;;7.70;34.20;;;;;;10331270;28;20297;-73
2022/04/04 10:06:10;;;;;;;3.30;3.10;;;7.80;34.00;;;;;;10330378;28;20817;-75
2022/04/04 10:11:13;;;;;;;3.63;3.33;;;7.90;33.00;;;;;;10327200;28;20227;-74
2022/04/04 10:16:17;;;;;;;4.03;3.73;;;7.80;33.40;;;;;;10328136;28;20235;-74
2022/04/04 10:21:22;;;;;;;3.77;3.47;;;7.90;34.00;;;;;;10325583;28;20237;-75
2022/04/04 10:26:28;;;;;;;4.03;3.43;;;8.00;33.50;;;;;;10328661;28;20226;-75
2022/04/04 10:31:43;;;;;;;4.40;4.03;;;8.10;33.20;;;;;;10327436;28;20227;-74
2022/04/04 10:37:00;;;;;;;3.93;3.63;;;8.20;30.60;;;;;;10336571;28;20218;-74
2022/04/04 10:42:27;;;;;;;4.37;3.97;;;8.20;32.70;;;;;;10332092;28;20236;-74
2022/04/04 10:47:40;;;;;;;4.50;4.10;;;8.20;31.80;;;;;;10332033;28;20240;-74
2022/04/04 10:52:45;;;;;;;4.60;4.20;;;8.30;32.50;;;;;;10325561;28;20319;-74
2022/04/04 10:57:48;;;;;;;4.23;3.83;;;8.40;32.80;;;;;;10322474;28;20227;-74
2022/04/04 11:02:53;;;;;;;4.30;4.00;;;8.50;33.00;;;;;;10322249;28;20227;-71
2022/04/04 11:08:00;;;;;;;4.80;4.40;;;8.60;32.20;;;;;;10324869;28;20230;-72
2022/04/04 11:13:08;;;;;;;5.13;4.73;;;8.60;31.50;;;;;;10327989;28;20226;-72
2022/04/04 11:18:12;;;;;;;5.30;4.80;;;8.60;31.60;;;;;;10332190;28;20234;-72
2022/04/04 11:23:17;;;;;;;4.57;4.17;;;8.70;31.80;;;;;;10337238;28;20234;-71
2022/04/04 11:28:24;;;;;;;8.40;7.40;;;8.70;32.00;;;;;;10335901;28;20802;-72
2022/04/04 11:33:28;;;;;;;6.33;5.73;;;8.80;32.50;;;;;;10343060;28;20793;-71
2022/04/04 11:38:38;;;;;;;5.77;5.27;;;8.90;32.30;;;;;;10347278;28;20226;-72
2022/04/04 11:43:48;;;;;;;5.97;5.40;;;9.00;30.70;;;;;;10345594;28;20517;-71
2022/04/04 11:48:54;;;;;;;5.03;4.63;;;9.00;32.50;;;;;;10333112;28;20235;-72
2022/04/04 11:54:03;;;;;;;5.80;5.30;;;9.10;32.10;;;;;;10337105;28;20238;-72
2022/04/04 11:59:08;;;;;;;6.07;5.40;;;9.00;30.50;;;;;;10339236;28;20542;-73
2022/04/04 12:04:14;;;;;;;6.20;5.70;;;9.00;32.00;;;;;;10339414;28;20223;-72
2022/04/04 12:09:30;;;;;;;6.07;5.57;;;9.10;31.60;;;;;;10339818;28;20305;-72
2022/04/04 12:14:34;;;;;;;6.70;6.10;;;9.20;31.00;;;;;;10332640;28;20235;-71
2022/04/04 12:19:44;;;;;;;6.37;5.87;;;9.20;32.00;;;;;;10335035;28;20589;-71
2022/04/04 12:24:58;;;;;;;6.73;6.03;;;9.20;30.10;;;;;;10330125;28;20245;-72
2022/04/04 12:30:03;;;;;;;6.13;5.60;;;9.10;31.10;;;;;;10334883;28;20226;-72
2022/04/04 12:35:08;;;;;;;6.20;5.70;;;9.20;31.70;;;;;;10328910;28;20226;-72
2022/04/04 12:40:21;;;;;;;6.50;6.00;;;9.30;32.20;;;;;;10330326;28;20222;-72
2022/04/04 12:45:25;;;;;;;6.50;5.97;;;9.30;30.60;;;;;;10328516;28;20750;-72
2022/04/04 12:50:38;;;;;;;6.50;6.00;;;9.40;31.30;;;;;;10329741;28;20222;-72
2022/04/04 12:56:01;;;;;;;6.43;5.93;;;9.40;30.70;;;;;;10330130;28;20234;-72
2022/04/04 13:01:12;;;;;;;6.57;6.00;;;9.50;31.20;;;;;;10330096;28;20237;-73
2022/04/04 13:06:16;;;;;;;6.70;6.10;;;9.50;30.10;;;;;;10327114;28;20643;-73
2022/04/04 13:11:21;;;;;;;6.80;6.20;;;9.50;30.90;;;;;;10329583;28;20230;-75
2022/04/04 13:16:32;;;;;;;6.60;5.83;;;9.50;31.40;;;;;;10332688;28;20884;-75
2022/04/04 13:21:36;;;;;;;6.90;6.30;;;9.60;31.50;;;;;;10347755;28;20722;-75
2022/04/04 13:26:41;;;;;;;6.80;6.23;;;9.70;32.10;;;;;;10339188;28;20230;-75
2022/04/04 13:31:46;;;;;;;6.77;6.17;;;9.80;31.50;;;;;;10344678;28;20223;-75
2022/04/04 13:36:50;;;;;;;6.33;5.87;;;9.90;31.80;;;;;;10339691;28;20229;-75
2022/04/04 13:41:54;;;;;;;6.40;5.83;;;10.00;31.10;;;;;;10341479;28;20483;-76
2022/04/04 13:46:58;;;;;;;6.80;6.30;;;10.10;30.00;;;;;;10339926;28;20219;-75
2022/04/04 13:52:01;;;;;;;7.07;6.43;;;10.20;30.70;;;;;;10336142;28;20235;-75
2022/04/04 13:57:06;;;;;;;6.57;6.07;;;10.30;30.80;;;;;;10337892;28;20233;-76
2022/04/04 14:02:11;;;;;;;7.40;6.70;;;10.40;30.40;;;;;;10334641;28;20753;-76
2022/04/04 14:07:17;;;;;;;7.13;6.53;;;10.40;30.10;;;;;;10342325;28;20233;-75
2022/04/04 14:12:23;;;;;;;6.53;5.93;;;10.40;29.90;;;;;;10341627;28;20706;-73
2022/04/04 14:17:26;;;;;;;7.30;6.60;;;10.40;29.70;;;;;;10347262;28;20227;-74
2022/04/04 14:22:30;;;;;;;7.40;6.70;;;10.50;31.00;;;;;;10342342;28;20231;-75
2022/04/04 14:27:34;;;;;;;7.17;6.57;;;10.50;30.20;;;;;;10343272;28;20222;-73
2022/04/04 14:32:37;;;;;;;7.00;6.40;;;10.50;29.80;;;;;;10334113;28;20234;-74
2022/04/04 14:37:41;;;;;;;7.17;6.57;;;10.60;30.00;;;;;;10337046;28;20238;-74
2022/04/04 14:42:45;;;;;;;6.50;5.90;;;10.60;30.10;;;;;;10341515;28;20235;-74
2022/04/04 14:47:48;;;;;;;6.10;5.60;;;10.60;29.90;;;;;;10342249;28;20234;-74
2022/04/04 14:52:52;;;;;;;8.43;6.17;;;10.70;29.90;;;;;;10338864;28;20234;-74
2022/04/04 14:57:56;;;;;;;6.63;6.03;;;10.70;30.00;;;;;;10335186;28;20238;-74
2022/04/04 15:02:59;;;;;;;6.23;5.63;;;10.70;29.70;;;;;;10333435;28;20232;-74
2022/04/04 15:08:07;;;;;;;5.80;5.30;;;10.80;29.50;;;;;;10336031;28;20223;-74
2022/04/04 15:13:11;;;;;;;7.57;6.77;;;10.80;30.00;;;;;;10333064;28;20233;-74
2022/04/04 15:18:15;;;;;;;7.17;6.47;;;10.90;29.70;;;;;;10340114;28;20241;-75
2022/04/04 15:23:18;;;;;;;6.30;5.80;;;10.90;30.10;;;;;;10338669;28;20309;-74
2022/04/04 15:28:22;;;;;;;7.50;6.80;;;10.90;29.90;;;;;;10339026;28;20318;-74
2022/04/04 15:33:27;;;;;;;6.97;6.37;;;10.90;28.90;;;;;;10332988;28;20761;-74
2022/04/04 15:38:30;;;;;;;7.03;6.43;;;10.90;29.70;;;;;;10348564;28;20228;-73
2022/04/04 15:43:38;;;;;;;7.20;6.60;;;10.90;30.00;;;;;;10341716;28;20234;-73
2022/04/04 15:48:41;;;;;;;6.80;6.13;;;10.80;29.10;;;;;;10335128;28;20252;-72
2022/04/04 15:53:44;;;;;;;6.03;5.53;;;10.80;29.30;;;;;;10339344;28;20234;-72
2022/04/04 15:58:49;;;;;;;6.97;6.37;;;10.80;29.40;;;;;;10332499;28;20226;-73
2022/04/04 16:03:53;;;;;;;7.13;6.47;;;10.70;29.40;;;;;;10340765;28;20586;-72
2022/04/04 16:14:20;;;;;;;6.90;6.30;;;10.80;30.00;;;;;;9029548;26;20713;-73
2022/04/04 16:19:24;;;;;;;7.30;6.70;;;10.80;29.60;;;;;;10357785;28;20580;-73
2022/04/04 16:24:27;;;;;;;7.30;6.70;;;10.90;29.80;;;;;;10358899;28;20252;-73
2022/04/04 16:29:31;;;;;;;7.30;6.70;;;10.90;29.70;;;;;;10355437;28;20219;-73
2022/04/04 16:34:35;;;;;;;7.90;7.20;;;10.80;29.10;;;;;;10356631;28;20226;-73
2022/04/04 16:39:38;;;;;;;7.83;7.23;;;10.80;29.80;;;;;;10355711;28;20227;-73
2022/04/04 16:44:42;;;;;;;7.67;7.00;;;10.80;29.60;;;;;;10357736;28;20873;-74
2022/04/04 16:49:45;;;;;;;7.37;6.67;;;10.80;29.50;;;;;;10352045;28;20233;-76
2022/04/04 16:54:49;;;;;;;7.63;7.03;;;10.80;29.80;;;;;;10357158;28;20707;-75
2022/04/04 17:36:46;;;;;;;7.77;7.07;;;10.60;29.20;;;;;;10235378;28;20291;-76
2022/04/04 17:41:51;;;;;;;7.53;6.93;;;10.50;29.80;;;;;;10262679;28;20614;-76
2022/04/04 17:46:54;;;;;;;7.37;6.77;;;10.50;29.60;;;;;;10262980;28;20226;-76
2022/04/04 17:51:57;;;;;;;7.10;6.40;;;10.60;29.50;;;;;;10262523;28;20225;-76
2022/04/04 17:57:02;;;;;;;7.50;6.80;;;10.60;29.60;;;;;;10263394;28;20258;-77
2022/04/04 18:02:07;;;;;;;6.83;6.27;;;10.60;29.10;;;;;;10258576;28;20227;-73
2022/04/04 18:07:12;;;;;;;7.30;6.70;;;10.50;29.10;;;;;;10256202;28;20235;-76
2022/04/04 18:12:18;;;;;;;6.93;6.30;;;10.50;28.70;;;;;;10256786;28;20228;-76
2022/04/04 18:17:21;;;;;;;6.90;6.30;;;10.40;28.60;;;;;;10259313;28;20247;-76
2022/04/04 18:22:24;;;;;;;6.77;6.20;;;10.30;29.30;;;;;;10417726;23;20306;-76
2022/04/04 18:27:29;;;;;;;7.67;6.97;;;10.20;29.20;;;;;;10392563;28;20229;-79
2022/04/04 18:32:32;;;;;;;6.77;6.17;;;10.10;29.40;;;;;;10389713;28;20273;-78
2022/04/04 18:37:38;;;;;;;7.03;6.43;;;9.90;30.50;;;;;;10393776;28;20233;-79
2022/04/04 18:42:43;;;;;;;6.23;5.63;;;9.80;30.90;;;;;;10395616;28;20293;-79
2022/04/04 18:47:48;;;;;;;6.90;6.20;;;9.60;31.20;;;;;;10403308;28;20236;-78
2022/04/04 18:52:52;;;;;;;5.93;5.43;;;9.40;31.60;;;;;;10399240;28;20979;-79
2022/04/04 18:57:58;;;;;;;6.40;5.80;;;9.20;32.00;;;;;;10388911;28;20736;-80
2022/04/04 19:03:01;;;;;;;5.57;5.07;;;9.00;32.50;;;;;;10384284;28;20228;-80
2022/04/04 19:08:05;;;;;;;6.37;5.87;;;8.80;32.50;;;;;;10387279;28;20377;-76
2022/04/04 19:13:09;;;;;;;6.33;5.73;;;8.70;32.90;;;;;;10386105;28;21535;-77
2022/04/04 19:18:13;;;;;;;6.47;5.90;;;8.50;33.30;;;;;;10381831;28;20249;-77
2022/04/04 19:23:17;;;;;;;6.27;5.70;;;8.40;33.50;;;;;;10385413;28;20234;-77
2022/04/04 19:28:23;;;;;;;5.57;5.17;;;8.30;33.50;;;;;;10385828;28;20237;-77
2022/04/04 19:33:27;;;;;;;5.87;5.37;;;8.20;34.00;;;;;;10385983;28;20308;-77
2022/04/04 19:38:31;;;;;;;5.60;5.00;;;8.20;33.80;;;;;;10391644;28;20279;-77
2022/04/04 19:43:35;;;;;;;6.27;5.20;;;8.00;34.10;;;;;;10398549;28;20240;-77
2022/04/04 19:48:39;;;;;;;5.63;5.13;;;7.90;34.40;;;;;;10391344;28;20241;-76
2022/04/04 19:53:43;;;;;;;6.33;5.83;;;7.80;34.40;;;;;;10392381;28;20257;-76
2022/04/04 19:58:47;;;;;;;6.60;6.00;;;7.70;34.90;;;;;;10393276;28;20260;-76
2022/04/04 20:03:51;;;;;;;5.83;5.33;;;7.70;35.40;;;;;;10387438;28;20249;-76
2022/04/04 20:08:56;;;;;;;6.77;6.17;;;7.70;35.10;;;;;;10390851;28;20222;-76
2022/04/04 20:14:03;;;;;;;6.77;5.90;;;7.60;35.20;;;;;;10393336;28;20237;-77
2022/04/04 20:19:06;;;;;;;6.80;6.30;;;7.50;35.70;;;;;;10387458;28;20250;-77
2022/04/04 20:24:10;;;;;;;7.47;6.77;;;7.50;35.80;;;;;;10397663;28;20235;-76
2022/04/04 20:29:15;;;;;;;7.73;7.03;;;7.40;35.90;;;;;;10392205;28;20230;-76
2022/04/04 20:34:18;;;;;;;8.67;7.27;;;7.40;36.50;;;;;;10392735;28;20237;-76
2022/04/04 20:39:21;;;;;;;7.60;6.80;;;7.30;36.20;;;;;;10387413;28;20228;-76
2022/04/04 20:44:26;;;;;;;8.20;7.40;;;7.30;36.20;;;;;;10384357;28;20233;-75
2022/04/04 20:49:29;;;;;;;7.87;7.13;;;7.30;36.50;;;;;;10387405;28;20614;-76
2022/04/04 20:54:32;;;;;;;7.17;6.57;;;7.30;36.20;;;;;;10385770;28;20236;-76
2022/04/04 20:59:37;;;;;;;7.60;6.90;;;7.40;36.20;;;;;;10384430;28;20272;-76
2022/04/04 21:04:40;;;;;;;7.87;7.17;;;7.40;36.40;;;;;;10385230;28;20633;-75
2022/04/04 21:09:43;;;;;;;6.87;6.27;;;7.40;36.30;;;;;;10387262;28;20749;-76
2022/04/04 21:14:48;;;;;;;7.10;6.50;;;7.50;36.40;;;;;;10385327;28;20246;-76
2022/04/04 21:19:51;;;;;;;7.20;6.50;;;7.50;36.60;;;;;;10372986;28;20234;-75
2022/04/04 21:24:54;;;;;;;7.50;6.80;;;7.50;36.50;;;;;;10382066;28;20234;-76
2022/04/04 21:30:00;;;;;;;6.03;5.53;;;7.50;36.50;;;;;;10379387;28;20226;-76
2022/04/04 21:35:03;;;;;;;5.13;4.73;;;7.50;36.50;;;;;;10377115;28;20314;-75
2022/04/04 21:40:08;;;;;;;5.37;4.87;;;7.50;36.50;;;;;;10375458;28;20234;-75
2022/04/04 21:45:12;;;;;;;4.60;4.20;;;7.50;36.50;;;;;;10371759;28;20256;-75
2022/04/04 21:50:16;;;;;;;4.70;4.30;;;7.50;36.70;;;;;;10377743;28;20221;-75
2022/04/04 21:55:19;;;;;;;4.23;3.90;;;7.50;36.50;;;;;;10376447;28;20240;-75
2022/04/04 22:00:25;;;;;;;4.40;4.00;;;7.50;36.50;;;;;;10378328;28;20710;-75
2022/04/04 22:05:28;;;;;;;4.23;3.90;;;7.50;36.50;;;;;;10384457;28;20230;-75
2022/04/04 22:10:32;;;;;;;5.13;3.87;;;7.50;36.50;;;;;;10382417;28;20233;-75
2022/04/04 22:15:36;;;;;;;5.37;4.10;;;7.50;36.40;;;;;;10387194;28;20686;-75
2022/04/04 22:20:40;;;;;;;4.93;4.40;;;7.50;36.50;;;;;;10385051;28;20233;-76
2022/04/04 22:25:43;;;;;;;4.33;3.93;;;7.50;36.40;;;;;;10383893;28;20230;-75
2022/04/04 22:30:50;;;;;;;4.63;4.23;;;7.60;36.40;;;;;;10386526;28;20225;-75
2022/04/04 22:35:53;;;;;;;4.30;3.90;;;7.60;36.40;;;;;;10387436;28;20789;-75
2022/04/04 22:40:56;;;;;;;4.30;3.87;;;7.60;36.20;;;;;;10376665;28;20253;-76
2022/04/04 22:46:01;;;;;;;4.27;3.97;;;7.70;36.30;;;;;;10384968;28;20224;-76
2022/04/04 22:51:04;;;;;;;4.00;3.70;;;7.60;36.50;;;;;;10381556;28;20271;-75
2022/04/04 22:56:07;;;;;;;4.33;3.93;;;7.70;36.20;;;;;;10384682;28;20233;-75
2022/04/04 23:01:12;;;;;;;4.30;3.90;;;7.70;36.40;;;;;;10378339;28;20217;-76
2022/04/04 23:06:15;;;;;;;3.70;3.33;;;7.60;36.50;;;;;;10377992;28;20226;-76
2022/04/04 23:11:18;;;;;;;3.80;3.50;;;7.60;36.40;;;;;;10396316;28;20650;-76
2022/04/04 23:16:23;;;;;;;4.20;3.63;;;7.60;36.40;;;;;;10395213;28;20240;-76
2022/04/04 23:21:26;;;;;;;4.07;3.77;;;7.60;36.50;;;;;;10396190;28;20233;-76
2022/04/04 23:26:29;;;;;;;4.47;4.07;;;7.60;36.60;;;;;;10391383;28;20238;-76
2022/04/04 23:31:34;;;;;;;4.63;4.23;;;7.50;36.70;;;;;;10386634;28;20230;-76
2022/04/04 23:36:37;;;;;;;4.67;4.27;;;7.50;36.90;;;;;;10386379;28;20709;-76
2022/04/04 23:41:40;;;;;;;4.00;3.70;;;7.50;36.80;;;;;;10394972;28;20230;-76
2022/04/04 23:46:44;;;;;;;3.90;3.60;;;7.50;36.90;;;;;;10399103;28;20233;-75
2022/04/04 23:51:48;;;;;;;4.37;3.97;;;7.50;37.20;;;;;;10390566;28;20230;-76
2022/04/04 23:56:51;;;;;;;4.23;3.93;;;7.50;37.20;;;;;;10389156;28;20226;-76
